createdAt,value
2022-12-03T00:00:55.711Z,20.00
2022-12-03T00:05:57.085Z,20.63
2022-12-03T00:10:58.466Z,20.50
2022-12-03T00:15:59.880Z,19.50
2022-12-03T00:21:01.288Z,21.33
2022-12-03T00:26:02.722Z,20.40
2022-12-03T00:31:04.308Z,20.63
2022-12-03T00:36:06.139Z,19.77
2022-12-03T00:41:07.558Z,20.25
2022-12-03T00:46:09.007Z,18.38
2022-12-03T00:51:10.411Z,19.85
2022-12-03T00:56:11.828Z,19.00
2022-12-03T01:01:13.351Z,19.63
2022-12-03T01:06:14.788Z,19.50
2022-12-03T01:11:34.836Z,18.83
2022-12-03T01:16:36.633Z,19.35
2022-12-03T01:21:38.200Z,18.75
2022-12-03T01:26:39.782Z,19.75
2022-12-03T01:31:59.603Z,18.60
2022-12-03T01:37:00.995Z,19.95
2022-12-03T01:42:02.947Z,19.80
2022-12-03T01:47:07.179Z,20.25
2022-12-03T01:52:32.243Z,19.25
2022-12-03T01:57:50.060Z,19.88
2022-12-03T02:02:57.736Z,20.05
2022-12-03T02:08:00.023Z,19.05
2022-12-03T02:13:03.483Z,18.00
2022-12-03T02:18:05.698Z,19.85
2022-12-03T02:23:13.078Z,18.17
2022-12-03T02:28:14.699Z,19.17
2022-12-03T02:33:16.242Z,18.80
2022-12-03T02:38:21.394Z,19.92
2022-12-03T02:43:24.054Z,18.92
2022-12-03T02:48:33.471Z,18.95
2022-12-03T02:53:42.126Z,19.92
2022-12-03T02:58:46.865Z,18.70
2022-12-03T03:03:49.710Z,20.17
2022-12-03T03:08:51.632Z,17.60
2022-12-03T03:13:53.115Z,19.10
2022-12-03T03:18:54.810Z,18.83
2022-12-03T03:23:56.247Z,19.77
2022-12-03T03:28:59.902Z,19.13
2022-12-03T03:34:01.375Z,20.30
2022-12-03T03:39:05.095Z,20.33
2022-12-03T03:44:08.186Z,19.38
2022-12-03T03:49:10.473Z,19.17
2022-12-03T03:54:12.475Z,19.23
2022-12-03T03:59:14.491Z,19.92
2022-12-03T04:04:20.702Z,19.30
2022-12-03T04:09:22.164Z,20.33
2022-12-03T04:14:23.562Z,18.83
2022-12-03T04:19:24.935Z,19.42
2022-12-03T04:24:26.392Z,18.23
2022-12-03T04:29:27.768Z,19.13
2022-12-03T04:34:48.270Z,18.95
2022-12-03T04:39:49.756Z,19.73
2022-12-03T04:44:51.247Z,18.70
2022-12-03T04:49:52.811Z,19.98
2022-12-03T04:54:54.477Z,19.38
2022-12-03T04:59:55.968Z,17.98
2022-12-03T05:04:58.243Z,18.57
2022-12-03T05:09:59.651Z,18.40
2022-12-03T05:15:01.043Z,19.77
2022-12-03T05:20:21.074Z,17.58
2022-12-03T05:25:22.429Z,17.48
2022-12-03T05:30:23.875Z,19.60
2022-12-03T05:35:26.128Z,17.70
2022-12-03T05:40:27.519Z,18.08
2022-12-03T05:45:32.534Z,17.45
2022-12-03T05:50:36.100Z,16.80
2022-12-03T05:55:48.391Z,18.52
2022-12-03T06:00:49.755Z,18.55
2022-12-03T06:05:51.116Z,18.70
2022-12-03T06:10:52.562Z,18.02
2022-12-03T06:15:53.972Z,18.33
2022-12-03T06:20:55.364Z,18.73
2022-12-03T06:25:56.798Z,22.60
2022-12-03T06:30:58.297Z,23.65
2022-12-03T06:35:59.731Z,19.10
2022-12-03T06:41:01.091Z,17.70
2022-12-03T06:46:02.526Z,17.98
2022-12-03T06:51:04.058Z,17.70
2022-12-03T06:56:05.783Z,18.38
2022-12-03T07:01:07.211Z,17.38
2022-12-03T07:06:08.767Z,18.80
2022-12-03T07:11:30.230Z,17.65
2022-12-03T07:16:31.655Z,16.63
2022-12-03T07:21:33.206Z,18.33
2022-12-03T07:26:34.592Z,18.25
2022-12-03T07:31:36.087Z,17.73
2022-12-03T07:36:37.647Z,18.42
2022-12-03T07:41:39.107Z,18.60
2022-12-03T07:46:40.930Z,18.73
2022-12-03T07:51:44.014Z,19.43
2022-12-03T07:56:45.370Z,19.93
2022-12-03T08:01:46.771Z,19.67
2022-12-03T08:06:48.702Z,17.67
2022-12-03T08:11:50.085Z,18.48
2022-12-03T08:16:51.504Z,19.65
2022-12-03T08:21:57.988Z,17.70
2022-12-03T08:27:02.427Z,18.17
2022-12-03T08:32:06.674Z,21.45
2022-12-03T08:37:18.727Z,19.88
2022-12-03T08:42:43.857Z,18.30
2022-12-03T08:47:45.400Z,18.40
2022-12-03T08:52:46.771Z,19.13
2022-12-03T08:57:48.258Z,18.52
2022-12-03T09:02:52.354Z,19.73
2022-12-03T09:07:53.881Z,24.05
2022-12-03T09:12:55.433Z,19.90
2022-12-03T09:17:56.883Z,19.33
2022-12-03T09:22:58.257Z,18.98
2022-12-03T09:27:59.692Z,20.30
2022-12-03T09:33:01.932Z,22.38
2022-12-03T09:38:03.469Z,19.23
2022-12-03T09:43:05.881Z,21.27
2022-12-03T09:48:07.488Z,20.30
2022-12-03T09:53:14.454Z,18.45
2022-12-03T09:58:18.210Z,21.40
2022-12-03T10:03:29.697Z,21.73
2022-12-03T10:56:52.419Z,22.73
2022-12-03T11:01:54.057Z,24.02
2022-12-03T11:06:55.624Z,23.70
2022-12-03T11:12:04.807Z,22.20
2022-12-03T11:17:07.811Z,23.08
2022-12-03T11:22:12.166Z,23.63
2022-12-03T11:27:19.110Z,23.63
2022-12-03T11:32:38.886Z,23.42
2022-12-03T11:38:36.600Z,26.15
2022-12-03T11:43:53.382Z,26.60
2022-12-03T11:48:57.527Z,25.13
2022-12-03T11:54:00.403Z,23.92
2022-12-03T11:59:04.305Z,25.10
2022-12-03T12:04:07.127Z,25.67
2022-12-03T12:09:08.659Z,23.92
2022-12-03T12:14:12.380Z,25.63
2022-12-03T12:19:32.267Z,24.50
2022-12-03T12:24:46.783Z,25.30
2022-12-03T12:29:54.967Z,25.55
2022-12-03T12:35:12.331Z,25.23
2022-12-03T12:40:15.746Z,24.65
2022-12-03T12:45:20.351Z,30.48
2022-12-03T12:50:21.722Z,30.48
2022-12-03T12:55:24.348Z,26.77
2022-12-03T13:00:25.759Z,25.23
2022-12-03T13:05:38.445Z,27.20
2022-12-03T13:10:41.815Z,24.42
2022-12-03T13:16:01.585Z,26.08
2022-12-03T13:21:23.192Z,25.65
2022-12-03T13:26:39.511Z,24.23
2022-12-03T13:31:47.724Z,24.80
2022-12-03T13:36:57.001Z,23.55
2022-12-03T13:42:38.186Z,24.67
2022-12-03T13:47:49.890Z,23.20
2022-12-03T13:52:52.779Z,24.20
2022-12-03T13:57:55.114Z,23.77
2022-12-03T14:02:56.481Z,23.17
2022-12-03T14:07:58.223Z,22.90
2022-12-03T14:12:59.754Z,21.98
2022-12-03T14:18:02.208Z,22.10
2022-12-03T14:23:03.589Z,22.47
2022-12-03T14:28:08.521Z,23.65
2022-12-03T14:33:09.926Z,21.70
2022-12-03T14:38:11.294Z,21.77
2022-12-03T14:43:12.763Z,21.50
2022-12-03T14:48:14.131Z,20.98
2022-12-03T14:53:15.492Z,21.05
2022-12-03T14:58:16.877Z,18.70
2022-12-03T15:03:18.794Z,18.98
2022-12-03T15:15:20.356Z,19.35
2022-12-03T15:20:21.761Z,19.02
2022-12-03T15:25:25.496Z,17.98
2022-12-03T15:30:27.037Z,18.05
2022-12-03T15:35:30.149Z,17.45
2022-12-03T15:40:31.692Z,17.73
2022-12-03T15:45:33.703Z,15.70
2022-12-03T15:50:39.963Z,17.80
2022-12-03T15:55:41.756Z,17.27
2022-12-03T16:00:43.120Z,16.38
2022-12-03T16:05:44.485Z,16.27
2022-12-03T16:10:45.979Z,17.02
2022-12-03T16:15:47.533Z,19.17
2022-12-03T16:20:49.082Z,17.88
2022-12-03T16:25:50.523Z,21.55
2022-12-03T16:30:51.979Z,16.73
2022-12-03T16:35:53.414Z,15.48
2022-12-03T16:40:54.831Z,18.33
2022-12-03T16:45:56.506Z,16.88
2022-12-03T16:50:57.997Z,16.58
2022-12-03T16:55:59.382Z,17.08
2022-12-03T17:01:00.751Z,17.45
2022-12-03T17:06:02.872Z,16.80
2022-12-03T17:11:04.465Z,16.20
2022-12-03T17:16:06.852Z,16.48
2022-12-03T17:21:08.352Z,15.73
2022-12-03T17:26:09.753Z,15.85
2022-12-03T17:31:11.925Z,17.35
2022-12-03T17:36:13.364Z,18.67
2022-12-03T17:41:14.787Z,17.55
2022-12-03T17:46:16.177Z,18.42
2022-12-03T17:51:19.158Z,16.77
2022-12-03T17:56:20.658Z,19.13
2022-12-03T18:01:22.038Z,17.92
2022-12-03T18:06:23.812Z,17.50
2022-12-03T18:11:27.270Z,17.30
2022-12-03T18:16:29.186Z,16.50
2022-12-03T18:21:30.648Z,17.73
2022-12-03T18:26:32.038Z,17.83
2022-12-03T18:31:33.553Z,18.75
2022-12-03T18:36:36.275Z,18.05
2022-12-03T18:41:37.646Z,22.02
2022-12-03T18:46:54.447Z,18.98
2022-12-03T18:51:59.513Z,19.23
2022-12-03T18:57:01.277Z,17.73
2022-12-03T19:02:03.321Z,17.35
2022-12-03T19:07:04.946Z,17.35
2022-12-03T19:12:14.234Z,17.73
2022-12-03T19:17:16.074Z,18.85
2022-12-03T19:22:17.456Z,17.60
2022-12-03T19:27:19.086Z,16.52
2022-12-03T19:32:20.454Z,16.50
2022-12-03T19:37:21.814Z,18.17
2022-12-03T19:42:23.170Z,16.98
2022-12-03T19:47:24.618Z,23.60
2022-12-03T19:52:26.059Z,17.45
2022-12-03T19:57:28.195Z,16.80
2022-12-03T20:02:29.770Z,16.20
2022-12-03T20:07:31.298Z,15.55
2022-12-03T20:12:32.906Z,15.88
2022-12-03T20:17:34.324Z,16.75
2022-12-03T20:22:35.719Z,15.85
2022-12-03T20:27:37.107Z,18.48
2022-12-03T20:32:43.698Z,15.23
2022-12-03T20:37:46.766Z,18.13
2022-12-03T20:42:48.282Z,17.95
2022-12-03T20:47:49.731Z,16.67
2022-12-03T20:53:16.155Z,14.90
2022-12-03T20:58:12.636Z,15.18
2022-12-03T21:03:14.059Z,13.57
2022-12-03T21:08:15.511Z,14.27
2022-12-03T21:13:18.146Z,14.30
2022-12-03T21:18:19.507Z,14.38
2022-12-03T21:23:20.887Z,15.27
2022-12-03T21:28:22.269Z,16.30
2022-12-03T21:33:23.667Z,17.35
2022-12-03T21:38:25.866Z,16.40
2022-12-03T21:43:28.285Z,17.08
2022-12-03T21:48:29.696Z,19.00
2022-12-03T21:53:32.711Z,19.50
2022-12-03T21:58:34.443Z,18.67
2022-12-03T22:03:35.796Z,20.58
2022-12-03T22:08:37.492Z,19.70
2022-12-03T22:13:40.104Z,21.30
2022-12-03T22:18:41.786Z,22.30
2022-12-03T22:23:43.435Z,22.58
2022-12-03T22:28:47.188Z,24.58
2022-12-03T22:33:49.520Z,23.08
2022-12-03T22:38:51.043Z,27.27
2022-12-03T22:43:52.624Z,26.02
2022-12-03T22:48:54.041Z,26.88
2022-12-03T22:53:56.982Z,24.38
2022-12-03T22:58:59.311Z,25.20
2022-12-03T23:04:01.479Z,23.80
2022-12-03T23:09:04.468Z,24.97
2022-12-03T23:14:05.865Z,27.20
2022-12-03T23:19:07.407Z,32.55
2022-12-03T23:24:10.027Z,32.80
2022-12-03T23:29:11.410Z,28.95
2022-12-03T23:34:12.821Z,24.73
2022-12-03T23:39:14.263Z,23.70
2022-12-03T23:44:15.651Z,28.67
2022-12-03T23:49:17.043Z,26.65
2022-12-03T23:54:18.416Z,26.88
2022-12-03T23:59:19.788Z,27.73
